Cross Plains, Texas
Current Conditions -  °F | °C
As of 7:35 PM on Wednesday 22 Oct 2014 (Local Time) from KCOM Reporting Station
Overcast Overcast  
Wind Chill: 67°   Ceiling: 7500
Heat Index: 67°   Visibility: 10mi
Dew Point: 61°   Wind: 0mph
Humidity: 81%   Direction: NA
Pressure: 30.1"   Gusts: NA
Location:  32.13°N, 99.17°W
Report Text: KCOM 230035Z AUTO 00000KT 10SM BKN075 OVC095 20/16 A3010 RMK AO2 LTG DSNT W T01950162
Loading
Personal Weather Stations






























Interactive Weather Map
Tropical Storm Tracking
New forecast layout! Learn more

10-Day Weather Forecast

Advertisements
Track Severe Weather on mobile